Condat sur Vézère

LFDZ · Dordogne, Nouvelle-Aquitaine, 法国

罗盘
风向 的 风向 300°
风: 6 kt, 2 beaufort

添加一条跑道以查看侧风和逆风信息。

添置 跑道
0 1.000 2.000 3.000 4.000 5.000
BKN 700 ft
BKN 1.200 ft
BKN 3.800 ft
METAR LFSL 291700Z AUTO 30006KT 9999 BKN007 BKN012 BKN038 07/06 Q1019 NOSIG

METAR Condat sur Vézère - LFDZ

Condat sur Vézère是,法国中的小机场。 视场标高为499 ft。 该领域的国际民航组织标志是LFDZ.

这份报告是针对2022年11月29日 18:00, 当地时间在Brive-Souillac进行的。

机场观察

风向为300°,速度为6 kt。

可见度为10 km 或者更多。

有碎云在700 ft的高度, 碎云在1.200 ft的高度 和 碎云在3.800 ft的高度。 破损或更高的上限为700 ft。

温度为7 °C,阵风为4 °C。 露点为6 °C,相对湿度为93%。 海平面上的气压为1019 hPa (QNH)。

白天

今天,太阳从08:11升起,在17:15降落。 这适用于Condat sur Vézère,世界夏令时可能有所不同。 当地时间与世界标准时间之间的时差为+1 小时。 当前,没有夏令时有效。

公司介绍

我们没有关于这个机场的公司信息。

体会

到Vliegles.nl去找飞行课程,跳伞和其他飞行体验。 浏览页面,了解Condat sur Vézère附近所有可用的活动。 你也可以使用搜索功能来寻找你所在地附近的特定飞行课程、跳伞或其他飞行体验。

乌云

700 ft BKN 碎云
1.200 ft BKN 碎云
3.800 ft BKN 碎云

温度 & 天气

温度 7 °C
露点 6 °C
相对湿度 93%
风寒 4 °C
Kp-index 5 (0-9)

白天

日出
08:09 (13:38)
中午
12:42
日落
17:14

小工具

你想在你的网站上有一个关于Condat sur Vézère的当前航空天气(METAR)的小部件吗?

显示HTML代码

我们和第三方通过cookies跟踪您在我们网站上的互联网行为。如果你继续,我们认为你同意我们的饼干政策